sensor_id;sensor_type;location;lat;lon;timestamp;P1;durP1;ratioP1;P2;durP2;ratioP2
17648;SDS011;8943;51.110;-4.158;2022-12-18T00:00:22;11.33;;;7.07;;
17648;SDS011;8943;51.110;-4.158;2022-12-18T00:02:52;8.93;;;6.13;;
17648;SDS011;8943;51.110;-4.158;2022-12-18T00:05:20;11.07;;;6.10;;
17648;SDS011;8943;51.110;-4.158;2022-12-18T00:07:49;9.67;;;6.70;;
17648;SDS011;8943;51.110;-4.158;2022-12-18T00:10:18;10.80;;;6.97;;
17648;SDS011;8943;51.110;-4.158;2022-12-18T00:12:46;9.20;;;6.33;;
17648;SDS011;8943;51.110;-4.158;2022-12-18T00:15:15;12.30;;;6.30;;
17648;SDS011;8943;51.110;-4.158;2022-12-18T00:17:43;11.87;;;7.30;;
17648;SDS011;8943;51.110;-4.158;2022-12-18T00:20:13;14.03;;;7.17;;
17648;SDS011;8943;51.110;-4.158;2022-12-18T00:22:47;11.63;;;6.77;;
17648;SDS011;8943;51.110;-4.158;2022-12-18T00:25:15;10.83;;;7.00;;
17648;SDS011;8943;51.110;-4.158;2022-12-18T00:27:44;11.30;;;6.60;;
17648;SDS011;8943;51.110;-4.158;2022-12-18T00:30:12;13.53;;;6.77;;
17648;SDS011;8943;51.110;-4.158;2022-12-18T00:32:41;10.50;;;6.47;;
17648;SDS011;8943;51.110;-4.158;2022-12-18T00:35:10;13.03;;;7.87;;
17648;SDS011;8943;51.110;-4.158;2022-12-18T00:37:39;13.83;;;8.27;;
17648;SDS011;8943;51.110;-4.158;2022-12-18T00:40:09;12.10;;;7.43;;
17648;SDS011;8943;51.110;-4.158;2022-12-18T00:42:38;14.50;;;7.17;;
17648;SDS011;8943;51.110;-4.158;2022-12-18T00:45:24;13.20;;;7.47;;
17648;SDS011;8943;51.110;-4.158;2022-12-18T00:47:53;13.63;;;7.30;;
17648;SDS011;8943;51.110;-4.158;2022-12-18T00:50:23;10.00;;;6.37;;
17648;SDS011;8943;51.110;-4.158;2022-12-18T00:52:53;11.20;;;7.23;;
17648;SDS011;8943;51.110;-4.158;2022-12-18T00:55:22;15.17;;;7.80;;
17648;SDS011;8943;51.110;-4.158;2022-12-18T00:57:50;12.47;;;6.73;;
17648;SDS011;8943;51.110;-4.158;2022-12-18T01:00:19;10.33;;;6.63;;
17648;SDS011;8943;51.110;-4.158;2022-12-18T01:02:51;13.07;;;6.47;;
17648;SDS011;8943;51.110;-4.158;2022-12-18T01:05:20;13.00;;;8.17;;
17648;SDS011;8943;51.110;-4.158;2022-12-18T01:07:48;10.07;;;7.07;;
17648;SDS011;8943;51.110;-4.158;2022-12-18T01:10:18;10.80;;;6.43;;
17648;SDS011;8943;51.110;-4.158;2022-12-18T01:12:46;9.90;;;6.40;;
17648;SDS011;8943;51.110;-4.158;2022-12-18T01:15:18;11.93;;;6.47;;
17648;SDS011;8943;51.110;-4.158;2022-12-18T01:17:46;9.83;;;6.63;;
17648;SDS011;8943;51.110;-4.158;2022-12-18T01:20:14;13.33;;;6.13;;
17648;SDS011;8943;51.110;-4.158;2022-12-18T01:22:44;14.87;;;6.53;;
17648;SDS011;8943;51.110;-4.158;2022-12-18T01:25:13;10.37;;;6.10;;
17648;SDS011;8943;51.110;-4.158;2022-12-18T01:27:42;11.00;;;6.63;;
17648;SDS011;8943;51.110;-4.158;2022-12-18T01:30:11;11.00;;;6.00;;
17648;SDS011;8943;51.110;-4.158;2022-12-18T01:32:39;12.97;;;6.47;;
17648;SDS011;8943;51.110;-4.158;2022-12-18T01:35:08;11.43;;;6.90;;
17648;SDS011;8943;51.110;-4.158;2022-12-18T01:37:36;11.53;;;6.47;;
17648;SDS011;8943;51.110;-4.158;2022-12-18T01:40:05;9.70;;;6.07;;
17648;SDS011;8943;51.110;-4.158;2022-12-18T01:42:34;11.90;;;5.97;;
17648;SDS011;8943;51.110;-4.158;2022-12-18T01:45:06;12.97;;;7.43;;
17648;SDS011;8943;51.110;-4.158;2022-12-18T01:47:50;12.10;;;6.60;;
17648;SDS011;8943;51.110;-4.158;2022-12-18T01:50:23;11.17;;;6.23;;
17648;SDS011;8943;51.110;-4.158;2022-12-18T01:52:55;10.10;;;5.80;;
17648;SDS011;8943;51.110;-4.158;2022-12-18T01:55:26;10.07;;;6.20;;
17648;SDS011;8943;51.110;-4.158;2022-12-18T01:57:58;10.83;;;5.80;;
17648;SDS011;8943;51.110;-4.158;2022-12-18T02:00:29;9.13;;;5.57;;
17648;SDS011;8943;51.110;-4.158;2022-12-18T02:02:58;10.43;;;5.83;;
17648;SDS011;8943;51.110;-4.158;2022-12-18T02:05:29;10.07;;;5.73;;
17648;SDS011;8943;51.110;-4.158;2022-12-18T02:08:08;8.63;;;5.37;;
17648;SDS011;8943;51.110;-4.158;2022-12-18T02:10:43;8.60;;;5.47;;
17648;SDS011;8943;51.110;-4.158;2022-12-18T02:13:22;8.40;;;6.10;;
17648;SDS011;8943;51.110;-4.158;2022-12-18T02:16:03;11.37;;;6.23;;
17648;SDS011;8943;51.110;-4.158;2022-12-18T02:18:40;8.53;;;5.80;;
17648;SDS011;8943;51.110;-4.158;2022-12-18T02:21:19;8.17;;;5.77;;
17648;SDS011;8943;51.110;-4.158;2022-12-18T02:23:56;9.43;;;5.87;;
17648;SDS011;8943;51.110;-4.158;2022-12-18T02:26:37;7.77;;;5.63;;
17648;SDS011;8943;51.110;-4.158;2022-12-18T02:29:12;8.07;;;5.80;;
17648;SDS011;8943;51.110;-4.158;2022-12-18T02:31:43;9.43;;;5.60;;
17648;SDS011;8943;51.110;-4.158;2022-12-18T02:34:17;10.20;;;6.90;;
17648;SDS011;8943;51.110;-4.158;2022-12-18T02:36:48;8.50;;;5.50;;
17648;SDS011;8943;51.110;-4.158;2022-12-18T02:39:18;9.57;;;5.70;;
17648;SDS011;8943;51.110;-4.158;2022-12-18T02:41:51;9.40;;;5.73;;
17648;SDS011;8943;51.110;-4.158;2022-12-18T02:44:19;10.20;;;6.17;;
17648;SDS011;8943;51.110;-4.158;2022-12-18T02:46:48;8.97;;;5.60;;
17648;SDS011;8943;51.110;-4.158;2022-12-18T02:49:21;8.37;;;5.67;;
17648;SDS011;8943;51.110;-4.158;2022-12-18T02:52:01;9.97;;;5.90;;
17648;SDS011;8943;51.110;-4.158;2022-12-18T02:54:38;8.60;;;5.83;;
17648;SDS011;8943;51.110;-4.158;2022-12-18T02:57:20;9.97;;;5.47;;
17648;SDS011;8943;51.110;-4.158;2022-12-18T02:59:58;9.07;;;5.93;;
17648;SDS011;8943;51.110;-4.158;2022-12-18T03:02:33;7.57;;;5.40;;
17648;SDS011;8943;51.110;-4.158;2022-12-18T03:05:09;8.27;;;5.80;;
17648;SDS011;8943;51.110;-4.158;2022-12-18T03:07:42;8.80;;;5.80;;
17648;SDS011;8943;51.110;-4.158;2022-12-18T03:10:14;7.83;;;6.00;;
17648;SDS011;8943;51.110;-4.158;2022-12-18T03:12:50;7.07;;;5.37;;
17648;SDS011;8943;51.110;-4.158;2022-12-18T03:15:22;8.30;;;5.60;;
17648;SDS011;8943;51.110;-4.158;2022-12-18T03:17:55;8.87;;;6.10;;
17648;SDS011;8943;51.110;-4.158;2022-12-18T03:20:26;14.80;;;5.40;;
17648;SDS011;8943;51.110;-4.158;2022-12-18T03:23:04;10.47;;;5.33;;
17648;SDS011;8943;51.110;-4.158;2022-12-18T03:25:37;10.87;;;5.60;;
17648;SDS011;8943;51.110;-4.158;2022-12-18T03:28:12;13.50;;;6.07;;
17648;SDS011;8943;51.110;-4.158;2022-12-18T03:30:43;8.33;;;5.10;;
17648;SDS011;8943;51.110;-4.158;2022-12-18T03:33:15;9.33;;;6.00;;
17648;SDS011;8943;51.110;-4.158;2022-12-18T03:35:46;8.67;;;5.60;;
17648;SDS011;8943;51.110;-4.158;2022-12-18T03:38:15;10.60;;;6.23;;
17648;SDS011;8943;51.110;-4.158;2022-12-18T03:40:45;7.80;;;5.10;;
17648;SDS011;8943;51.110;-4.158;2022-12-18T03:43:26;9.93;;;6.40;;
17648;SDS011;8943;51.110;-4.158;2022-12-18T03:46:06;9.00;;;5.90;;
17648;SDS011;8943;51.110;-4.158;2022-12-18T03:48:41;10.43;;;6.00;;
17648;SDS011;8943;51.110;-4.158;2022-12-18T03:51:13;9.93;;;5.83;;
17648;SDS011;8943;51.110;-4.158;2022-12-18T03:53:47;10.20;;;7.80;;
17648;SDS011;8943;51.110;-4.158;2022-12-18T03:56:21;10.17;;;6.00;;
17648;SDS011;8943;51.110;-4.158;2022-12-18T03:58:54;9.37;;;5.87;;
17648;SDS011;8943;51.110;-4.158;2022-12-18T04:01:25;9.20;;;6.23;;
17648;SDS011;8943;51.110;-4.158;2022-12-18T04:03:58;11.57;;;7.27;;
17648;SDS011;8943;51.110;-4.158;2022-12-18T04:06:28;13.03;;;6.03;;
17648;SDS011;8943;51.110;-4.158;2022-12-18T04:08:57;9.33;;;5.90;;
17648;SDS011;8943;51.110;-4.158;2022-12-18T04:11:26;15.00;;;6.20;;
17648;SDS011;8943;51.110;-4.158;2022-12-18T04:13:56;11.43;;;5.53;;
17648;SDS011;8943;51.110;-4.158;2022-12-18T04:16:28;12.67;;;6.80;;
17648;SDS011;8943;51.110;-4.158;2022-12-18T04:18:56;9.87;;;5.63;;
17648;SDS011;8943;51.110;-4.158;2022-12-18T04:21:24;8.17;;;6.47;;
17648;SDS011;8943;51.110;-4.158;2022-12-18T04:23:52;11.47;;;6.80;;
17648;SDS011;8943;51.110;-4.158;2022-12-18T04:26:20;11.33;;;7.00;;
17648;SDS011;8943;51.110;-4.158;2022-12-18T04:28:48;11.00;;;6.57;;
17648;SDS011;8943;51.110;-4.158;2022-12-18T04:31:18;13.23;;;7.37;;
17648;SDS011;8943;51.110;-4.158;2022-12-18T04:33:46;9.90;;;6.23;;
17648;SDS011;8943;51.110;-4.158;2022-12-18T04:36:14;13.17;;;7.20;;
17648;SDS011;8943;51.110;-4.158;2022-12-18T04:38:42;10.23;;;7.17;;
17648;SDS011;8943;51.110;-4.158;2022-12-18T04:41:13;9.43;;;6.43;;
17648;SDS011;8943;51.110;-4.158;2022-12-18T04:43:41;11.23;;;7.10;;
17648;SDS011;8943;51.110;-4.158;2022-12-18T04:46:09;9.80;;;6.33;;
17648;SDS011;8943;51.110;-4.158;2022-12-18T04:48:39;14.90;;;7.03;;
17648;SDS011;8943;51.110;-4.158;2022-12-18T04:51:07;10.23;;;6.77;;
17648;SDS011;8943;51.110;-4.158;2022-12-18T04:53:35;9.00;;;6.93;;
17648;SDS011;8943;51.110;-4.158;2022-12-18T04:56:05;11.43;;;7.07;;
17648;SDS011;8943;51.110;-4.158;2022-12-18T04:58:34;11.13;;;6.40;;
17648;SDS011;8943;51.110;-4.158;2022-12-18T05:01:02;12.53;;;7.53;;
17648;SDS011;8943;51.110;-4.158;2022-12-18T05:03:31;12.27;;;7.57;;
17648;SDS011;8943;51.110;-4.158;2022-12-18T05:06:00;12.90;;;7.30;;
17648;SDS011;8943;51.110;-4.158;2022-12-18T05:08:29;10.80;;;7.20;;
17648;SDS011;8943;51.110;-4.158;2022-12-18T05:11:00;13.33;;;7.57;;
17648;SDS011;8943;51.110;-4.158;2022-12-18T05:13:29;12.00;;;7.50;;
17648;SDS011;8943;51.110;-4.158;2022-12-18T05:15:58;12.80;;;7.73;;
17648;SDS011;8943;51.110;-4.158;2022-12-18T05:18:26;14.93;;;7.33;;
17648;SDS011;8943;51.110;-4.158;2022-12-18T05:20:55;10.97;;;7.90;;
17648;SDS011;8943;51.110;-4.158;2022-12-18T05:23:25;14.97;;;8.20;;
17648;SDS011;8943;51.110;-4.158;2022-12-18T05:25:54;18.07;;;8.70;;
17648;SDS011;8943;51.110;-4.158;2022-12-18T05:28:23;14.47;;;8.70;;
17648;SDS011;8943;51.110;-4.158;2022-12-18T05:30:53;14.73;;;8.10;;
17648;SDS011;8943;51.110;-4.158;2022-12-18T05:33:23;13.67;;;9.20;;
17648;SDS011;8943;51.110;-4.158;2022-12-18T05:35:52;15.60;;;9.50;;
17648;SDS011;8943;51.110;-4.158;2022-12-18T05:38:21;17.33;;;9.30;;
17648;SDS011;8943;51.110;-4.158;2022-12-18T05:40:53;13.63;;;7.97;;
17648;SDS011;8943;51.110;-4.158;2022-12-18T05:43:21;13.47;;;8.67;;
17648;SDS011;8943;51.110;-4.158;2022-12-18T05:45:52;15.07;;;9.47;;
17648;SDS011;8943;51.110;-4.158;2022-12-18T05:48:22;13.97;;;9.20;;
17648;SDS011;8943;51.110;-4.158;2022-12-18T05:50:50;15.17;;;9.27;;
17648;SDS011;8943;51.110;-4.158;2022-12-18T05:53:19;13.20;;;9.50;;
17648;SDS011;8943;51.110;-4.158;2022-12-18T05:55:48;18.37;;;9.90;;
17648;SDS011;8943;51.110;-4.158;2022-12-18T05:58:17;18.33;;;9.67;;
17648;SDS011;8943;51.110;-4.158;2022-12-18T06:00:45;13.63;;;9.00;;
17648;SDS011;8943;51.110;-4.158;2022-12-18T06:03:14;15.40;;;10.67;;
17648;SDS011;8943;51.110;-4.158;2022-12-18T06:05:43;15.83;;;10.70;;
17648;SDS011;8943;51.110;-4.158;2022-12-18T06:08:12;24.33;;;11.70;;
17648;SDS011;8943;51.110;-4.158;2022-12-18T06:10:41;16.17;;;11.30;;
17648;SDS011;8943;51.110;-4.158;2022-12-18T06:13:09;18.27;;;11.03;;
17648;SDS011;8943;51.110;-4.158;2022-12-18T06:15:39;19.63;;;11.90;;
17648;SDS011;8943;51.110;-4.158;2022-12-18T06:18:07;16.37;;;11.23;;
17648;SDS011;8943;51.110;-4.158;2022-12-18T06:20:35;18.70;;;12.10;;
17648;SDS011;8943;51.110;-4.158;2022-12-18T06:23:05;20.97;;;12.83;;
17648;SDS011;8943;51.110;-4.158;2022-12-18T06:25:36;21.60;;;12.23;;
17648;SDS011;8943;51.110;-4.158;2022-12-18T06:28:05;20.37;;;12.13;;
17648;SDS011;8943;51.110;-4.158;2022-12-18T06:30:33;18.20;;;10.50;;
17648;SDS011;8943;51.110;-4.158;2022-12-18T06:33:04;41.10;;;13.43;;
17648;SDS011;8943;51.110;-4.158;2022-12-18T06:35:32;22.30;;;14.00;;
17648;SDS011;8943;51.110;-4.158;2022-12-18T06:38:01;22.97;;;12.67;;
17648;SDS011;8943;51.110;-4.158;2022-12-18T06:40:29;88.63;;;14.43;;
17648;SDS011;8943;51.110;-4.158;2022-12-18T06:42:57;84.27;;;17.00;;
17648;SDS011;8943;51.110;-4.158;2022-12-18T06:45:25;34.37;;;14.27;;
17648;SDS011;8943;51.110;-4.158;2022-12-18T06:47:55;17.07;;;10.97;;
17648;SDS011;8943;51.110;-4.158;2022-12-18T06:50:25;29.17;;;11.93;;
17648;SDS011;8943;51.110;-4.158;2022-12-18T06:52:55;17.40;;;11.33;;
17648;SDS011;8943;51.110;-4.158;2022-12-18T06:55:24;20.43;;;11.47;;
17648;SDS011;8943;51.110;-4.158;2022-12-18T06:57:52;18.37;;;11.60;;
17648;SDS011;8943;51.110;-4.158;2022-12-18T07:00:20;21.80;;;12.47;;
17648;SDS011;8943;51.110;-4.158;2022-12-18T07:02:48;92.27;;;15.20;;
17648;SDS011;8943;51.110;-4.158;2022-12-18T07:05:16;92.43;;;15.30;;
17648;SDS011;8943;51.110;-4.158;2022-12-18T07:07:45;15.70;;;10.57;;
17648;SDS011;8943;51.110;-4.158;2022-12-18T07:10:14;18.70;;;12.20;;
17648;SDS011;8943;51.110;-4.158;2022-12-18T07:12:42;57.43;;;13.87;;
17648;SDS011;8943;51.110;-4.158;2022-12-18T07:15:10;16.53;;;10.63;;
17648;SDS011;8943;51.110;-4.158;2022-12-18T07:17:38;60.30;;;13.37;;
17648;SDS011;8943;51.110;-4.158;2022-12-18T07:20:06;52.73;;;13.60;;
17648;SDS011;8943;51.110;-4.158;2022-12-18T07:22:36;34.33;;;13.20;;
17648;SDS011;8943;51.110;-4.158;2022-12-18T07:25:06;15.70;;;11.63;;
17648;SDS011;8943;51.110;-4.158;2022-12-18T07:27:35;37.87;;;12.27;;
17648;SDS011;8943;51.110;-4.158;2022-12-18T07:30:03;24.73;;;14.43;;
17648;SDS011;8943;51.110;-4.158;2022-12-18T07:32:32;20.27;;;12.83;;
17648;SDS011;8943;51.110;-4.158;2022-12-18T07:35:00;18.27;;;12.40;;
17648;SDS011;8943;51.110;-4.158;2022-12-18T07:37:28;110.20;;;17.17;;
17648;SDS011;8943;51.110;-4.158;2022-12-18T07:39:56;19.27;;;13.17;;
17648;SDS011;8943;51.110;-4.158;2022-12-18T07:42:26;63.03;;;18.90;;
17648;SDS011;8943;51.110;-4.158;2022-12-18T07:45:01;22.57;;;13.30;;
17648;SDS011;8943;51.110;-4.158;2022-12-18T07:47:30;15.73;;;10.73;;
17648;SDS011;8943;51.110;-4.158;2022-12-18T07:49:58;21.87;;;14.57;;
17648;SDS011;8943;51.110;-4.158;2022-12-18T07:52:26;83.63;;;16.43;;
17648;SDS011;8943;51.110;-4.158;2022-12-18T07:54:54;62.67;;;22.97;;
17648;SDS011;8943;51.110;-4.158;2022-12-18T07:57:22;23.80;;;14.37;;
17648;SDS011;8943;51.110;-4.158;2022-12-18T08:00:12;17.93;;;11.67;;
17648;SDS011;8943;51.110;-4.158;2022-12-18T08:02:41;27.63;;;15.57;;
17648;SDS011;8943;51.110;-4.158;2022-12-18T08:05:09;35.57;;;22.27;;
17648;SDS011;8943;51.110;-4.158;2022-12-18T08:07:37;20.20;;;13.23;;
17648;SDS011;8943;51.110;-4.158;2022-12-18T08:10:06;21.03;;;11.57;;
17648;SDS011;8943;51.110;-4.158;2022-12-18T08:12:34;18.67;;;10.60;;
17648;SDS011;8943;51.110;-4.158;2022-12-18T08:15:03;16.07;;;10.77;;
17648;SDS011;8943;51.110;-4.158;2022-12-18T08:17:33;15.97;;;10.90;;
17648;SDS011;8943;51.110;-4.158;2022-12-18T08:20:01;47.60;;;15.23;;
17648;SDS011;8943;51.110;-4.158;2022-12-18T08:22:30;19.37;;;12.67;;
17648;SDS011;8943;51.110;-4.158;2022-12-18T08:25:01;21.27;;;10.80;;
17648;SDS011;8943;51.110;-4.158;2022-12-18T08:27:30;19.87;;;12.07;;
17648;SDS011;8943;51.110;-4.158;2022-12-18T08:30:00;17.57;;;12.83;;
17648;SDS011;8943;51.110;-4.158;2022-12-18T08:32:29;146.43;;;19.67;;
17648;SDS011;8943;51.110;-4.158;2022-12-18T08:35:00;17.80;;;11.00;;
17648;SDS011;8943;51.110;-4.158;2022-12-18T08:37:28;26.07;;;12.20;;
17648;SDS011;8943;51.110;-4.158;2022-12-18T08:39:56;28.47;;;16.67;;
17648;SDS011;8943;51.110;-4.158;2022-12-18T08:42:24;61.07;;;19.73;;
17648;SDS011;8943;51.110;-4.158;2022-12-18T08:45:10;22.27;;;13.50;;
17648;SDS011;8943;51.110;-4.158;2022-12-18T08:47:38;54.17;;;16.40;;
17648;SDS011;8943;51.110;-4.158;2022-12-18T08:50:08;24.80;;;17.77;;
17648;SDS011;8943;51.110;-4.158;2022-12-18T08:52:38;21.13;;;12.53;;
17648;SDS011;8943;51.110;-4.158;2022-12-18T08:55:07;37.03;;;14.20;;
17648;SDS011;8943;51.110;-4.158;2022-12-18T08:57:36;17.53;;;12.40;;
17648;SDS011;8943;51.110;-4.158;2022-12-18T09:00:04;17.77;;;12.17;;
17648;SDS011;8943;51.110;-4.158;2022-12-18T09:02:33;17.17;;;11.80;;
17648;SDS011;8943;51.110;-4.158;2022-12-18T09:05:02;16.13;;;11.60;;
17648;SDS011;8943;51.110;-4.158;2022-12-18T09:07:32;18.40;;;10.83;;
17648;SDS011;8943;51.110;-4.158;2022-12-18T09:10:00;66.47;;;16.47;;
17648;SDS011;8943;51.110;-4.158;2022-12-18T09:12:28;15.40;;;11.33;;
17648;SDS011;8943;51.110;-4.158;2022-12-18T09:14:56;77.10;;;15.73;;
17648;SDS011;8943;51.110;-4.158;2022-12-18T09:17:24;18.30;;;10.03;;
17648;SDS011;8943;51.110;-4.158;2022-12-18T09:19:52;41.60;;;13.00;;
17648;SDS011;8943;51.110;-4.158;2022-12-18T09:22:20;29.60;;;12.27;;
17648;SDS011;8943;51.110;-4.158;2022-12-18T09:24:50;15.13;;;11.77;;
17648;SDS011;8943;51.110;-4.158;2022-12-18T09:27:18;14.80;;;10.60;;
17648;SDS011;8943;51.110;-4.158;2022-12-18T09:29:46;15.70;;;9.27;;
17648;SDS011;8943;51.110;-4.158;2022-12-18T09:32:14;16.17;;;9.83;;
17648;SDS011;8943;51.110;-4.158;2022-12-18T09:34:47;12.23;;;9.27;;
17648;SDS011;8943;51.110;-4.158;2022-12-18T09:37:16;14.07;;;9.37;;
17648;SDS011;8943;51.110;-4.158;2022-12-18T09:39:44;14.13;;;10.80;;
17648;SDS011;8943;51.110;-4.158;2022-12-18T09:42:16;19.33;;;9.53;;
17648;SDS011;8943;51.110;-4.158;2022-12-18T09:44:49;13.60;;;9.87;;
17648;SDS011;8943;51.110;-4.158;2022-12-18T09:47:18;15.97;;;9.53;;
17648;SDS011;8943;51.110;-4.158;2022-12-18T09:49:53;13.73;;;8.53;;
17648;SDS011;8943;51.110;-4.158;2022-12-18T09:52:26;11.93;;;8.60;;
17648;SDS011;8943;51.110;-4.158;2022-12-18T09:55:00;16.57;;;8.60;;
17648;SDS011;8943;51.110;-4.158;2022-12-18T09:57:35;48.57;;;10.40;;
17648;SDS011;8943;51.110;-4.158;2022-12-18T10:00:11;12.90;;;8.70;;
17648;SDS011;8943;51.110;-4.158;2022-12-18T10:02:45;11.50;;;8.43;;
17648;SDS011;8943;51.110;-4.158;2022-12-18T10:05:15;10.87;;;7.53;;
17648;SDS011;8943;51.110;-4.158;2022-12-18T10:07:50;24.50;;;10.23;;
17648;SDS011;8943;51.110;-4.158;2022-12-18T10:10:31;9.33;;;7.70;;
17648;SDS011;8943;51.110;-4.158;2022-12-18T10:13:09;13.97;;;8.13;;
17648;SDS011;8943;51.110;-4.158;2022-12-18T10:15:49;12.40;;;7.87;;
17648;SDS011;8943;51.110;-4.158;2022-12-18T10:18:27;11.63;;;7.13;;
17648;SDS011;8943;51.110;-4.158;2022-12-18T10:21:08;9.60;;;6.83;;
17648;SDS011;8943;51.110;-4.158;2022-12-18T10:23:42;42.60;;;9.87;;
17648;SDS011;8943;51.110;-4.158;2022-12-18T10:26:19;9.83;;;7.63;;
17648;SDS011;8943;51.110;-4.158;2022-12-18T10:28:49;9.80;;;7.80;;
17648;SDS011;8943;51.110;-4.158;2022-12-18T10:31:19;9.30;;;7.40;;
17648;SDS011;8943;51.110;-4.158;2022-12-18T10:33:50;13.57;;;8.97;;
17648;SDS011;8943;51.110;-4.158;2022-12-18T10:36:19;11.10;;;7.90;;
17648;SDS011;8943;51.110;-4.158;2022-12-18T10:38:49;12.17;;;8.60;;
17648;SDS011;8943;51.110;-4.158;2022-12-18T10:41:24;12.40;;;6.73;;
17648;SDS011;8943;51.110;-4.158;2022-12-18T10:46:46;7.87;;;5.40;;
17648;SDS011;8943;51.110;-4.158;2022-12-18T10:49:19;8.87;;;6.23;;
17648;SDS011;8943;51.110;-4.158;2022-12-18T10:51:50;9.90;;;5.63;;
17648;SDS011;8943;51.110;-4.158;2022-12-18T10:54:32;9.93;;;5.50;;
17648;SDS011;8943;51.110;-4.158;2022-12-18T10:57:15;12.67;;;5.63;;
17648;SDS011;8943;51.110;-4.158;2022-12-18T10:59:51;9.47;;;7.07;;
17648;SDS011;8943;51.110;-4.158;2022-12-18T11:02:25;6.63;;;4.57;;
17648;SDS011;8943;51.110;-4.158;2022-12-18T11:04:55;67.60;;;7.63;;
17648;SDS011;8943;51.110;-4.158;2022-12-18T11:07:23;148.67;;;12.13;;
17648;SDS011;8943;51.110;-4.158;2022-12-18T11:09:59;7.50;;;4.63;;
17648;SDS011;8943;51.110;-4.158;2022-12-18T11:12:28;188.30;;;13.93;;
17648;SDS011;8943;51.110;-4.158;2022-12-18T11:14:58;7.93;;;4.87;;
17648;SDS011;8943;51.110;-4.158;2022-12-18T11:17:27;31.73;;;6.13;;
17648;SDS011;8943;51.110;-4.158;2022-12-18T11:19:58;7.13;;;3.80;;
17648;SDS011;8943;51.110;-4.158;2022-12-18T11:22:28;146.53;;;13.57;;
17648;SDS011;8943;51.110;-4.158;2022-12-18T11:24:59;180.37;;;15.40;;
17648;SDS011;8943;51.110;-4.158;2022-12-18T11:27:49;4.77;;;2.70;;
17648;SDS011;8943;51.110;-4.158;2022-12-18T11:30:23;11.30;;;6.90;;
17648;SDS011;8943;51.110;-4.158;2022-12-18T11:32:53;6.57;;;5.70;;
17648;SDS011;8943;51.110;-4.158;2022-12-18T11:35:27;4.77;;;3.97;;
17648;SDS011;8943;51.110;-4.158;2022-12-18T11:38:06;6.07;;;4.20;;
17648;SDS011;8943;51.110;-4.158;2022-12-18T11:40:43;5.77;;;3.60;;
17648;SDS011;8943;51.110;-4.158;2022-12-18T11:43:17;4.80;;;3.37;;
17648;SDS011;8943;51.110;-4.158;2022-12-18T11:45:52;3.97;;;3.00;;
17648;SDS011;8943;51.110;-4.158;2022-12-18T11:48:23;9.63;;;6.60;;
17648;SDS011;8943;51.110;-4.158;2022-12-18T11:50:55;6.60;;;4.03;;
17648;SDS011;8943;51.110;-4.158;2022-12-18T11:53:25;5.37;;;4.07;;
17648;SDS011;8943;51.110;-4.158;2022-12-18T11:56:02;3.33;;;2.10;;
17648;SDS011;8943;51.110;-4.158;2022-12-18T11:58:43;35.30;;;3.83;;
17648;SDS011;8943;51.110;-4.158;2022-12-18T12:01:28;3.37;;;2.10;;
17648;SDS011;8943;51.110;-4.158;2022-12-18T12:07:12;3.10;;;2.63;;
17648;SDS011;8943;51.110;-4.158;2022-12-18T12:09:52;5.20;;;3.87;;
17648;SDS011;8943;51.110;-4.158;2022-12-18T12:12:31;4.27;;;1.87;;
17648;SDS011;8943;51.110;-4.158;2022-12-18T12:15:22;2.13;;;1.13;;
17648;SDS011;8943;51.110;-4.158;2022-12-18T12:18:01;9.80;;;1.87;;
17648;SDS011;8943;51.110;-4.158;2022-12-18T12:20:42;3.23;;;1.63;;
17648;SDS011;8943;51.110;-4.158;2022-12-18T12:23:20;2.47;;;1.47;;
17648;SDS011;8943;51.110;-4.158;2022-12-18T12:26:03;3.93;;;2.17;;
17648;SDS011;8943;51.110;-4.158;2022-12-18T12:28:42;20.17;;;8.37;;
17648;SDS011;8943;51.110;-4.158;2022-12-18T12:31:33;5.00;;;3.17;;
17648;SDS011;8943;51.110;-4.158;2022-12-18T12:34:17;3.67;;;2.40;;
17648;SDS011;8943;51.110;-4.158;2022-12-18T12:36:54;130.77;;;10.07;;
17648;SDS011;8943;51.110;-4.158;2022-12-18T12:39:32;4.53;;;2.83;;
17648;SDS011;8943;51.110;-4.158;2022-12-18T12:42:03;3.00;;;1.73;;
17648;SDS011;8943;51.110;-4.158;2022-12-18T12:44:51;3.37;;;2.63;;
17648;SDS011;8943;51.110;-4.158;2022-12-18T12:47:30;13.13;;;3.60;;
17648;SDS011;8943;51.110;-4.158;2022-12-18T12:50:03;3.43;;;2.80;;
17648;SDS011;8943;51.110;-4.158;2022-12-18T12:52:35;2.37;;;1.50;;
17648;SDS011;8943;51.110;-4.158;2022-12-18T12:55:13;3.43;;;1.80;;
17648;SDS011;8943;51.110;-4.158;2022-12-18T12:57:48;6.20;;;1.50;;
17648;SDS011;8943;51.110;-4.158;2022-12-18T13:00:24;3.20;;;1.77;;
17648;SDS011;8943;51.110;-4.158;2022-12-18T13:02:56;4.57;;;2.83;;
17648;SDS011;8943;51.110;-4.158;2022-12-18T13:05:34;132.20;;;9.40;;
17648;SDS011;8943;51.110;-4.158;2022-12-18T13:08:08;2.83;;;1.47;;
17648;SDS011;8943;51.110;-4.158;2022-12-18T13:10:39;1.63;;;1.30;;
17648;SDS011;8943;51.110;-4.158;2022-12-18T13:13:09;1.63;;;1.53;;
17648;SDS011;8943;51.110;-4.158;2022-12-18T13:15:43;2.03;;;1.63;;
17648;SDS011;8943;51.110;-4.158;2022-12-18T13:18:17;2.10;;;1.90;;
17648;SDS011;8943;51.110;-4.158;2022-12-18T13:20:48;2.80;;;1.60;;
17648;SDS011;8943;51.110;-4.158;2022-12-18T13:23:27;14.33;;;3.07;;
17648;SDS011;8943;51.110;-4.158;2022-12-18T13:25:59;21.17;;;3.57;;
17648;SDS011;8943;51.110;-4.158;2022-12-18T13:28:55;3.33;;;2.53;;
17648;SDS011;8943;51.110;-4.158;2022-12-18T13:34:35;5.40;;;1.80;;
17648;SDS011;8943;51.110;-4.158;2022-12-18T13:43:28;29.47;;;6.03;;
17648;SDS011;8943;51.110;-4.158;2022-12-18T13:46:03;3.10;;;1.67;;
17648;SDS011;8943;51.110;-4.158;2022-12-18T13:48:36;3.13;;;1.73;;
17648;SDS011;8943;51.110;-4.158;2022-12-18T13:51:07;58.33;;;4.87;;
17648;SDS011;8943;51.110;-4.158;2022-12-18T13:53:42;5.20;;;2.53;;
17648;SDS011;8943;51.110;-4.158;2022-12-18T13:56:15;3.27;;;2.27;;
17648;SDS011;8943;51.110;-4.158;2022-12-18T14:01:33;6.70;;;3.20;;
17648;SDS011;8943;51.110;-4.158;2022-12-18T14:04:09;11.93;;;6.00;;
17648;SDS011;8943;51.110;-4.158;2022-12-18T14:06:38;6.80;;;3.97;;
17648;SDS011;8943;51.110;-4.158;2022-12-18T14:09:11;5.73;;;3.20;;
17648;SDS011;8943;51.110;-4.158;2022-12-18T14:11:47;6.60;;;4.00;;
17648;SDS011;8943;51.110;-4.158;2022-12-18T14:14:17;14.90;;;6.80;;
17648;SDS011;8943;51.110;-4.158;2022-12-18T14:16:46;18.87;;;7.63;;
17648;SDS011;8943;51.110;-4.158;2022-12-18T14:19:16;17.10;;;6.67;;
17648;SDS011;8943;51.110;-4.158;2022-12-18T14:21:47;14.00;;;5.80;;
17648;SDS011;8943;51.110;-4.158;2022-12-18T14:29:53;3.53;;;1.70;;
17648;SDS011;8943;51.110;-4.158;2022-12-18T14:32:24;18.70;;;2.73;;
17648;SDS011;8943;51.110;-4.158;2022-12-18T14:34:53;4.50;;;1.40;;
17648;SDS011;8943;51.110;-4.158;2022-12-18T14:38:10;2.83;;;1.20;;
17648;SDS011;8943;51.110;-4.158;2022-12-18T14:40:59;3.97;;;1.23;;
17648;SDS011;8943;51.110;-4.158;2022-12-18T14:46:34;2.63;;;0.90;;
17648;SDS011;8943;51.110;-4.158;2022-12-18T14:49:21;3.00;;;1.10;;
17648;SDS011;8943;51.110;-4.158;2022-12-18T14:51:54;3.90;;;1.20;;
17648;SDS011;8943;51.110;-4.158;2022-12-18T14:54:24;3.67;;;1.10;;
17648;SDS011;8943;51.110;-4.158;2022-12-18T14:56:56;2.37;;;1.07;;
17648;SDS011;8943;51.110;-4.158;2022-12-18T14:59:32;2.27;;;1.10;;
17648;SDS011;8943;51.110;-4.158;2022-12-18T15:02:15;3.53;;;1.20;;
17648;SDS011;8943;51.110;-4.158;2022-12-18T15:05:02;3.83;;;1.47;;
17648;SDS011;8943;51.110;-4.158;2022-12-18T15:07:55;4.40;;;1.97;;
17648;SDS011;8943;51.110;-4.158;2022-12-18T15:10:26;6.33;;;2.30;;
17648;SDS011;8943;51.110;-4.158;2022-12-18T15:13:09;4.33;;;1.93;;
17648;SDS011;8943;51.110;-4.158;2022-12-18T15:16:03;6.03;;;2.27;;
17648;SDS011;8943;51.110;-4.158;2022-12-18T15:18:57;4.63;;;1.57;;
17648;SDS011;8943;51.110;-4.158;2022-12-18T15:21:26;6.87;;;1.87;;
17648;SDS011;8943;51.110;-4.158;2022-12-18T15:24:13;2.97;;;1.27;;
17648;SDS011;8943;51.110;-4.158;2022-12-18T15:38:07;8.57;;;3.37;;
17648;SDS011;8943;51.110;-4.158;2022-12-18T15:40:36;11.17;;;5.90;;
17648;SDS011;8943;51.110;-4.158;2022-12-18T15:43:14;7.90;;;4.53;;